Time;durP1;ratioP1;P1;durP2;ratioP2;P2;SDS_P1;SDS_P2;PMS_P1;PMS_P2;Temp;Humidity;BMP_temperature;BMP_pressure;BME280_temperature;BME280_humidity;BME280_pressure;Samples;Min_cycle;Max_cycle;Signal;HPM_P1;HPM_P2
2023/11/08 02:08:38;;;;;;;18.60;13.43;;;5.60;99.90;;;;;;6177431;22;20289;31
2023/11/08 02:34:10;;;;;;;22.30;13.63;;;6.10;99.90;;;;;;6036143;23;20222;-84
2023/11/08 02:38:30;;;;;;;19.57;12.50;;;6.20;99.90;;;;;;5903103;23;20508;-86
2023/11/08 02:59:28;;;;;;;16.27;11.73;;;5.40;99.90;;;;;;5976832;23;20194;-85
2023/11/08 03:39:19;;;;;;;20.80;12.83;;;6.20;99.90;;;;;;5818493;24;20194;-86
2023/11/08 04:14:47;;;;;;;19.07;12.97;;;5.90;99.90;;;;;;5960156;23;20215;-87
2023/11/08 04:35:41;;;;;;;18.73;13.37;;;5.80;99.90;;;;;;5879353;24;20184;-84
2023/11/08 05:51:47;;;;;;;23.40;15.17;;;5.00;99.90;;;;;;6149788;22;20149;-87
2023/11/08 06:17:09;;;;;;;21.63;14.93;;;5.90;99.90;;;;;;5802163;24;20272;-83
2023/11/08 07:22:44;;;;;;;14.23;10.90;;;8.60;99.90;;;;;;5949074;23;20219;-84
2023/11/08 07:43:20;;;;;;;14.43;10.00;;;9.20;99.90;;;;;;6008912;23;20513;-88
2023/11/08 07:47:41;;;;;;;13.67;9.73;;;9.30;99.90;;;;;;6015528;23;20328;-86
2023/11/08 08:13:38;;;;;;;14.97;9.67;;;9.70;99.90;;;;;;5835264;24;20521;-85
2023/11/08 09:04:10;;;;;;;10.77;8.90;;;10.80;99.90;;;;;;5863670;23;20565;-86
2023/11/08 09:34:36;;;;;;;12.60;8.20;;;10.30;99.90;;;;;;5878313;23;20202;-86
2023/11/08 10:00:13;;;;;;;9.73;8.73;;;10.20;99.90;;;;;;5742880;24;20303;-83
2023/11/08 10:04:33;;;;;;;9.97;8.17;;;10.40;99.90;;;;;;5699386;23;20580;-82
2023/11/08 10:30:23;;;;;;;9.33;7.47;;;10.80;99.90;;;;;;5890789;23;20634;-85
2023/11/08 11:41:36;;;;;;;8.40;7.60;;;11.10;99.90;;;;;;4902039;28;20751;-84
2023/11/08 12:06:35;;;;;;;7.33;6.13;;;11.10;99.90;;;;;;4764942;28;20557;-83
2023/11/08 12:26:55;;;;;;;5.50;4.90;;;11.40;95.20;;;;;;4685457;29;21210;-84
2023/11/08 12:57:28;;;;;;;5.50;5.00;;;11.40;96.20;;;;;;4792979;28;20308;-86
2023/11/08 13:22:55;;;;;;;5.60;4.83;;;11.20;95.30;;;;;;4741899;29;20782;-84
2023/11/08 13:42:44;;;;;;;6.27;5.47;;;10.80;96.50;;;;;;4533168;30;20743;-82
2023/11/08 14:13:05;;;;;;;6.63;6.00;;;10.60;99.90;;;;;;4504439;30;21042;-82
2023/11/08 14:33:54;;;;;;;7.50;6.77;;;10.40;99.90;;;;;;4682512;29;20857;-84
2023/11/08 14:59:23;;;;;;;7.60;7.00;;;10.00;99.90;;;;;;4604805;29;20827;-82
2023/11/08 15:49:26;;;;;;;8.83;7.93;;;9.90;99.90;;;;;;4568896;30;20435;-82
2023/11/08 16:15:24;;;;;;;9.00;8.03;;;9.70;99.90;;;;;;4564413;30;20242;-82
2023/11/08 16:55:57;;;;;;;10.97;7.33;;;9.30;99.90;;;;;;4805163;29;20253;-85
2023/11/08 17:20:40;;;;;;;9.47;7.80;;;9.10;99.90;;;;;;4570372;30;20339;-84
2023/11/08 17:41:20;;;;;;;12.60;8.73;;;9.00;99.90;;;;;;4672132;29;20222;-83
2023/11/08 18:07:01;;;;;;;14.17;10.30;;;9.00;99.90;;;;;;4838805;28;20257;-84
2023/11/08 18:11:20;;;;;;;13.53;10.37;;;9.00;99.90;;;;;;4769095;28;20570;-84
2023/11/08 18:32:21;;;;;;;13.93;9.40;;;9.00;99.90;;;;;;4773714;28;20999;-83
2023/11/08 19:02:06;;;;;;;13.70;9.17;;;9.30;99.90;;;;;;4789409;29;20632;-85
2023/11/08 19:23:05;;;;;;;12.90;9.57;;;9.10;99.90;;;;;;4847231;29;20292;-84
2023/11/08 19:43:07;;;;;;;11.10;8.93;;;9.10;99.90;;;;;;4787105;29;20266;-85
2023/11/08 20:33:11;;;;;;;11.63;7.57;;;8.00;99.90;;;;;;4875761;29;20243;-86
2023/11/08 20:58:09;;;;;;;16.13;12.60;;;8.00;99.90;;;;;;4585706;30;20645;-88
2023/11/08 21:19:06;;;;;;;14.27;11.40;;;8.20;99.90;;;;;;4661890;30;20260;-84
2023/11/08 21:54:31;;;;;;;15.83;11.07;;;8.20;99.90;;;;;;4813333;29;20298;-86
2023/11/08 22:19:44;;;;;;;13.17;10.20;;;8.20;99.90;;;;;;4668526;29;20415;-84
2023/11/08 22:39:57;;;;;;;16.87;11.07;;;8.50;99.90;;;;;;4588294;30;20419;-86
2023/11/08 23:15:03;;;;;;;15.37;10.93;;;8.30;99.90;;;;;;4497160;30;20815;-83
2023/11/08 23:35:55;;;;;;;16.70;11.97;;;8.10;99.90;;;;;;4703009;30;20339;-89
